createdAt,value
2023-04-14T00:00:41.269Z,2.42857
2023-04-14T00:01:41.316Z,2.42857
2023-04-14T00:02:41.456Z,3.92857
2023-04-14T00:03:41.512Z,3
2023-04-14T00:04:41.514Z,2.35714
2023-04-14T00:05:41.475Z,2.35714
2023-04-14T00:06:41.518Z,2.64286
2023-04-14T00:07:41.555Z,2.21429
2023-04-14T00:08:41.604Z,2.42857
2023-04-14T00:09:41.658Z,1.92857
2023-04-14T00:10:41.696Z,1.92857
2023-04-14T00:11:41.729Z,2.42857
2023-04-14T00:12:41.775Z,2.42857
2023-04-14T00:13:41.815Z,2.14286
2023-04-14T00:14:41.846Z,5
2023-04-14T00:15:41.892Z,3.35714
2023-04-14T00:16:41.953Z,3
2023-04-14T00:17:41.993Z,2.42857
2023-04-14T00:18:42.025Z,1.71429
2023-04-14T00:19:42.064Z,2.14286
2023-04-14T00:20:42.113Z,2
2023-04-14T00:21:42.161Z,2.14286
2023-04-14T00:22:42.191Z,2
2023-04-14T00:23:42.260Z,2.14286
2023-04-14T00:24:42.297Z,1.92857
2023-04-14T00:25:42.329Z,1.64286
2023-04-14T00:26:42.376Z,2.14286
2023-04-14T00:27:42.417Z,2.71429
2023-04-14T00:28:42.458Z,2.71429
2023-04-14T00:29:42.488Z,3.35714
2023-04-14T00:30:42.560Z,1.85714
2023-04-14T00:31:42.666Z,2.5
2023-04-14T00:32:42.640Z,3.35714
2023-04-14T00:33:42.662Z,2.42857
2023-04-14T00:34:42.710Z,1.42857
2023-04-14T00:35:42.755Z,1.85714
2023-04-14T00:36:42.797Z,1.92857
2023-04-14T00:37:42.834Z,2.5
2023-04-14T00:38:42.868Z,1.92857
2023-04-14T00:39:42.913Z,1.71429
2023-04-14T00:40:42.966Z,2.85714
2023-04-14T00:41:42.996Z,1.92857
2023-04-14T00:42:43.056Z,2
2023-04-14T00:43:43.074Z,1.85714
2023-04-14T00:44:43.119Z,2.21429
2023-04-14T00:45:43.160Z,1.85714
2023-04-14T00:46:43.227Z,4
2023-04-14T00:47:43.318Z,1.92857
2023-04-14T00:48:43.280Z,3.64286
2023-04-14T00:49:43.315Z,3.14286
2023-04-14T00:50:43.367Z,2.14286
2023-04-14T00:51:43.410Z,2.35714
2023-04-14T00:52:43.445Z,2.5
2023-04-14T00:53:43.484Z,2.5
2023-04-14T00:54:43.528Z,2.64286
2023-04-14T00:55:43.567Z,2.85714
2023-04-14T00:56:43.605Z,2.64286
2023-04-14T00:57:43.657Z,3
2023-04-14T00:58:43.693Z,3.71429
2023-04-14T00:59:43.742Z,3
2023-04-14T01:00:43.776Z,4.35714
2023-04-14T01:01:43.878Z,3.21429
2023-04-14T01:02:44.163Z,3.64286
2023-04-14T01:03:44.034Z,3.92857
2023-04-14T01:04:53.612Z,4.21429
2023-04-14T01:05:43.997Z,3.64286
2023-04-14T01:06:44.037Z,4
2023-04-14T01:07:44.087Z,4.64286
2023-04-14T01:08:44.124Z,4.42857
2023-04-14T01:09:44.166Z,6
2023-04-14T01:10:44.217Z,8.14286
2023-04-14T01:11:44.249Z,6.21429
2023-04-14T01:12:44.283Z,6.35714
2023-04-14T01:13:44.328Z,7.64286
2023-04-14T01:14:44.376Z,7.64286
2023-04-14T01:15:44.453Z,8
2023-04-14T01:16:44.458Z,9.35714
2023-04-14T01:17:44.533Z,9.64286
2023-04-14T01:18:44.560Z,10
2023-04-14T01:19:44.585Z,9.42857
2023-04-14T01:20:44.625Z,8.64286
2023-04-14T01:21:44.679Z,8.71429
2023-04-14T01:22:44.719Z,8.14286
2023-04-14T01:23:44.759Z,7.85714
2023-04-14T01:24:44.791Z,7.42857
2023-04-14T01:25:44.847Z,6.92857
2023-04-14T01:26:44.883Z,6.64286
2023-04-14T01:27:44.928Z,6.85714
2023-04-14T01:28:44.963Z,6.5
2023-04-14T01:29:45.024Z,6.21429
2023-04-14T01:30:45.072Z,7.14286
2023-04-14T01:31:45.193Z,6.21429
2023-04-14T01:32:45.184Z,6.42857
2023-04-14T01:33:45.187Z,6.85714
2023-04-14T01:34:45.228Z,6.21429
2023-04-14T01:35:45.271Z,6.71429
2023-04-14T01:36:45.310Z,6.21429
2023-04-14T01:37:45.352Z,6.21429
2023-04-14T01:38:45.381Z,6.85714
2023-04-14T01:39:45.430Z,6.42857
2023-04-14T01:40:45.458Z,6.35714
2023-04-14T01:41:45.510Z,6.64286
2023-04-14T01:42:45.545Z,6.85714
2023-04-14T01:43:45.603Z,6.42857
2023-04-14T01:44:45.636Z,5.85714
2023-04-14T01:45:45.730Z,6.35714
2023-04-14T01:46:45.717Z,6
2023-04-14T01:47:45.795Z,5.85714
2023-04-14T01:48:45.805Z,6.5
2023-04-14T01:49:45.915Z,6.14286
2023-04-14T01:50:45.876Z,6.92857
2023-04-14T01:51:45.936Z,6.71429
2023-04-14T01:52:45.978Z,6
2023-04-14T01:53:46.020Z,6.21429
2023-04-14T01:54:46.048Z,6.5
2023-04-14T01:55:46.092Z,6.85714
2023-04-14T01:56:46.131Z,6.71429
2023-04-14T01:57:46.181Z,6.5
2023-04-14T01:58:46.217Z,6.71429
2023-04-14T01:59:46.256Z,7.64286
2023-04-14T02:00:46.329Z,5.85714
2023-04-14T02:01:46.396Z,6.64286
2023-04-14T02:02:46.606Z,6.85714
2023-04-14T02:03:46.523Z,7.21429
2023-04-14T02:04:46.471Z,7
2023-04-14T02:05:46.506Z,7.64286
2023-04-14T02:06:46.561Z,6.64286
2023-04-14T02:07:46.600Z,6.85714
2023-04-14T02:08:46.631Z,6.64286
2023-04-14T02:09:46.674Z,6.14286
2023-04-14T02:10:46.716Z,6.35714
2023-04-14T02:11:46.761Z,6
2023-04-14T02:12:46.798Z,5.71429
2023-04-14T02:13:46.841Z,6.42857
2023-04-14T02:14:46.922Z,7.14286
2023-04-14T02:15:46.914Z,7.42857
2023-04-14T02:16:46.989Z,6.35714
2023-04-14T02:17:47.033Z,6.85714
2023-04-14T02:18:47.040Z,6.42857
2023-04-14T02:19:47.072Z,5.64286
2023-04-14T02:20:47.119Z,5.85714
2023-04-14T02:21:47.168Z,5
2023-04-14T02:22:47.204Z,5.5
2023-04-14T02:23:47.255Z,5.85714
2023-04-14T02:24:47.292Z,6.42857
2023-04-14T02:25:47.335Z,6.21429
2023-04-14T02:26:47.386Z,7.14286
2023-04-14T02:27:47.428Z,7.14286
2023-04-14T02:28:47.459Z,7.35714
2023-04-14T02:29:47.510Z,7.64286
2023-04-14T02:30:47.644Z,7.64286
2023-04-14T02:31:47.595Z,7.35714
2023-04-14T02:32:47.690Z,7.92857
2023-04-14T02:33:47.677Z,8.42857
2023-04-14T02:34:47.726Z,6.92857
2023-04-14T02:35:47.781Z,6.35714
2023-04-14T02:36:47.810Z,5.71429
2023-04-14T02:37:47.851Z,5.71429
2023-04-14T02:38:47.890Z,4.85714
2023-04-14T02:39:47.928Z,4.14286
2023-04-14T02:40:47.970Z,5.42857
2023-04-14T02:41:48.015Z,5.64286
2023-04-14T02:42:48.079Z,6.42857
2023-04-14T02:43:48.099Z,5.21429
2023-04-14T02:44:48.131Z,4.42857
2023-04-14T02:45:48.206Z,4.42857
2023-04-14T02:46:48.232Z,5.14286
2023-04-14T02:47:48.314Z,4.64286
2023-04-14T02:48:48.309Z,4.71429
2023-04-14T02:49:48.358Z,4.5
2023-04-14T02:50:48.398Z,4.92857
2023-04-14T02:51:48.435Z,4.92857
2023-04-14T02:52:48.476Z,5.35714
2023-04-14T02:53:48.527Z,4.5
2023-04-14T02:54:48.573Z,5.71429
2023-04-14T02:55:48.597Z,4.64286
2023-04-14T02:56:48.648Z,5.64286
2023-04-14T02:57:48.689Z,6.64286
2023-04-14T02:58:48.734Z,6.92857
2023-04-14T02:59:48.764Z,7.35714
2023-04-14T03:00:48.822Z,6.92857
2023-04-14T03:01:48.993Z,8.14286
2023-04-14T03:02:48.964Z,7.64286
2023-04-14T03:03:48.955Z,7.42857
2023-04-14T03:04:48.984Z,7.5
2023-04-14T03:05:49.025Z,7.5
2023-04-14T03:06:49.064Z,7.85714
2023-04-14T03:07:49.099Z,8.21429
2023-04-14T03:08:49.152Z,7.92857
2023-04-14T03:09:49.186Z,8.21429
2023-04-14T03:10:49.231Z,7.92857
2023-04-14T03:11:49.266Z,8.14286
2023-04-14T03:12:49.296Z,7.64286
2023-04-14T03:13:49.361Z,7.85714
2023-04-14T03:14:49.381Z,7.85714
2023-04-14T03:15:49.463Z,7.85714
2023-04-14T03:16:50.673Z,8.42857
2023-04-14T03:17:49.552Z,8.21429
2023-04-14T03:18:49.545Z,7.85714
2023-04-14T03:19:49.587Z,8.35714
2023-04-14T03:20:49.624Z,7.92857
2023-04-14T03:21:49.663Z,8.5
2023-04-14T03:22:49.707Z,8.14286
2023-04-14T03:23:49.755Z,8.71429
2023-04-14T03:24:49.786Z,8.5
2023-04-14T03:25:49.849Z,7.64286
2023-04-14T03:26:49.879Z,8.64286
2023-04-14T03:27:49.920Z,8.42857
2023-04-14T03:28:49.960Z,7.71429
2023-04-14T03:29:50.007Z,8.14286
2023-04-14T03:30:50.065Z,8
2023-04-14T03:31:50.239Z,8.21429
2023-04-14T03:32:50.189Z,7.35714
2023-04-14T03:33:50.173Z,7.71429
2023-04-14T03:34:50.216Z,8.5
2023-04-14T03:35:50.261Z,8.21429
2023-04-14T03:36:50.364Z,7.92857
2023-04-14T03:37:50.339Z,8.5
2023-04-14T03:38:50.381Z,7.42857
2023-04-14T03:39:50.412Z,7.92857
2023-04-14T03:40:50.472Z,7.92857
2023-04-14T03:41:50.514Z,7.5
2023-04-14T03:42:50.552Z,6.92857
2023-04-14T03:43:50.589Z,7
2023-04-14T03:44:50.619Z,7.35714
2023-04-14T03:45:50.689Z,7.92857
2023-04-14T03:46:50.733Z,7.85714
2023-04-14T03:47:50.783Z,7.42857
2023-04-14T03:48:50.784Z,7.71429
2023-04-14T03:49:50.827Z,7.42857
2023-04-14T03:50:50.873Z,6.92857
2023-04-14T03:51:50.917Z,6.85714
2023-04-14T03:52:50.963Z,6.85714
2023-04-14T03:53:50.996Z,7
2023-04-14T03:54:51.034Z,7.64286
2023-04-14T03:55:51.082Z,7.21429
2023-04-14T03:56:51.114Z,7.14286
2023-04-14T03:57:51.161Z,6.5
2023-04-14T03:58:51.210Z,7.42857
2023-04-14T03:59:51.245Z,7.21429
2023-04-14T04:00:51.310Z,6.64286
2023-04-14T04:01:51.402Z,6.85714
2023-04-14T04:02:51.559Z,7
2023-04-14T04:03:51.571Z,7.5
2023-04-14T04:04:51.512Z,7
2023-04-14T04:05:51.496Z,6.71429
2023-04-14T04:06:51.534Z,6.71429
2023-04-14T04:07:51.589Z,6.64286
2023-04-14T04:08:51.620Z,7
2023-04-14T04:09:51.657Z,6.14286
2023-04-14T04:10:51.706Z,6.35714
2023-04-14T04:11:51.727Z,7
2023-04-14T04:12:51.777Z,6.42857
2023-04-14T04:13:51.818Z,6.14286
2023-04-14T04:14:51.865Z,6
2023-04-14T04:15:51.925Z,6.14286
2023-04-14T04:16:52.043Z,6
2023-04-14T04:17:51.998Z,6.71429
2023-04-14T04:18:52.010Z,6.21429
2023-04-14T04:19:52.056Z,6.5
2023-04-14T04:20:52.100Z,6.71429
2023-04-14T04:21:52.131Z,5.64286
2023-04-14T04:22:52.178Z,5.85714
2023-04-14T04:23:52.222Z,6
2023-04-14T04:24:52.267Z,5.85714
2023-04-14T04:25:52.310Z,5.71429
2023-04-14T04:26:52.381Z,5.92857
2023-04-14T04:27:52.399Z,6.35714
2023-04-14T04:28:52.489Z,5.64286
2023-04-14T04:29:52.477Z,5.21429
2023-04-14T04:30:52.516Z,5.71429
2023-04-14T04:31:54.978Z,5.42857
2023-04-14T04:32:52.638Z,6.42857
2023-04-14T04:33:52.637Z,6.14286
2023-04-14T04:34:52.682Z,5.92857
2023-04-14T04:35:52.732Z,5.92857
2023-04-14T04:36:52.753Z,6
2023-04-14T04:37:52.788Z,5.92857
2023-04-14T04:38:52.831Z,6.14286
2023-04-14T04:39:52.875Z,5.92857
2023-04-14T04:40:52.913Z,6.92857
2023-04-14T04:41:52.957Z,5.85714
2023-04-14T04:42:52.994Z,5.92857
2023-04-14T04:43:53.044Z,6.42857
2023-04-14T04:44:53.080Z,5.64286
2023-04-14T04:45:53.141Z,6
2023-04-14T04:46:53.183Z,6
2023-04-14T04:47:53.224Z,6.21429
2023-04-14T04:48:53.246Z,6.21429
2023-04-14T04:49:53.288Z,5.92857
2023-04-14T04:50:53.324Z,6.14286
2023-04-14T04:51:53.381Z,5.64286
2023-04-14T04:52:53.413Z,6
2023-04-14T04:53:53.459Z,6.21429
2023-04-14T04:54:53.493Z,6.42857
2023-04-14T04:55:53.549Z,5.64286
2023-04-14T04:56:53.579Z,6.14286
2023-04-14T04:57:53.618Z,5.92857
2023-04-14T04:58:53.668Z,5.85714
2023-04-14T04:59:53.699Z,5.42857
2023-04-14T05:00:53.746Z,5.5
2023-04-14T05:01:53.908Z,5.71429
2023-04-14T05:02:53.954Z,6.35714
2023-04-14T05:03:53.909Z,6
2023-04-14T05:04:54.039Z,6.35714
2023-04-14T05:05:53.958Z,5.64286
2023-04-14T05:06:54.036Z,6.21429
2023-04-14T05:07:54.049Z,6.85714
2023-04-14T05:08:54.087Z,5.64286
2023-04-14T05:09:54.135Z,6.14286
2023-04-14T05:10:54.176Z,5.92857
2023-04-14T05:11:54.237Z,6.14286
2023-04-14T05:12:54.249Z,6.14286
2023-04-14T05:13:54.307Z,5.5
2023-04-14T05:14:54.331Z,5.92857
2023-04-14T05:15:54.433Z,5.85714
2023-04-14T05:16:54.411Z,5.85714
2023-04-14T05:17:54.492Z,5.92857
2023-04-14T05:18:54.500Z,5.64286
2023-04-14T05:19:54.540Z,5.92857
2023-04-14T05:20:54.581Z,6.64286
2023-04-14T05:21:54.629Z,5.71429
2023-04-14T05:22:54.668Z,6.14286
2023-04-14T05:23:54.721Z,5.64286
2023-04-14T05:24:54.751Z,5.92857
2023-04-14T05:25:54.808Z,6
2023-04-14T05:27:12.452Z,5.85714
2023-04-14T05:27:54.870Z,5.85714
2023-04-14T05:28:54.913Z,6.21429
2023-04-14T05:29:54.961Z,6.21429
2023-04-14T05:30:55.042Z,6.14286
2023-04-14T05:31:55.035Z,6.64286
2023-04-14T05:32:55.120Z,5.92857
2023-04-14T05:33:55.140Z,5.64286
2023-04-14T05:34:55.177Z,6.14286
2023-04-14T05:35:55.201Z,7.85714
2023-04-14T05:36:55.245Z,6
2023-04-14T05:37:55.277Z,5.92857
2023-04-14T05:38:55.313Z,5.42857
2023-04-14T05:39:55.368Z,6.14286
2023-04-14T05:40:55.400Z,6.35714
2023-04-14T05:41:55.463Z,6.14286
2023-04-14T05:42:57.125Z,6.85714
2023-04-14T05:43:55.539Z,7
2023-04-14T05:44:55.577Z,6.64286
2023-04-14T05:45:55.650Z,6
2023-04-14T05:46:55.875Z,6.35714
2023-04-14T05:47:55.731Z,6.14286
2023-04-14T05:48:55.756Z,6.14286
2023-04-14T05:49:55.783Z,5.85714
2023-04-14T05:50:55.820Z,6.21429
2023-04-14T05:51:55.857Z,6.64286
2023-04-14T05:52:55.911Z,6.64286
2023-04-14T05:53:55.940Z,6.64286
2023-04-14T05:54:55.987Z,6.14286
2023-04-14T05:55:56.056Z,6
2023-04-14T05:56:56.063Z,6
2023-04-14T05:57:56.123Z,6.5
2023-04-14T05:58:56.154Z,6.14286
2023-04-14T05:59:58.185Z,6.14286
2023-04-14T06:00:56.249Z,6
2023-04-14T06:01:56.398Z,6.85714
2023-04-14T06:02:56.471Z,6.42857
2023-04-14T06:03:56.571Z,6.35714
2023-04-14T06:04:56.517Z,6.92857
2023-04-14T06:05:56.451Z,7.21429
2023-04-14T06:06:56.503Z,7.71429
2023-04-14T06:07:56.548Z,7
2023-04-14T06:08:56.596Z,7.64286
2023-04-14T06:09:56.629Z,7
2023-04-14T06:10:56.675Z,6.85714
2023-04-14T06:11:56.879Z,7.42857
2023-04-14T06:12:56.758Z,7
2023-04-14T06:13:56.809Z,7.14286
2023-04-14T06:14:56.844Z,6.92857
2023-04-14T06:15:56.975Z,7
2023-04-14T06:16:57.050Z,6.64286
2023-04-14T06:17:57.024Z,6.5
2023-04-14T06:18:57.018Z,6.92857
2023-04-14T06:19:57.056Z,6.5
2023-04-14T06:20:57.099Z,6.35714
2023-04-14T06:21:57.147Z,5.92857
2023-04-14T06:22:57.185Z,5.85714
2023-04-14T06:23:57.224Z,5.92857
2023-04-14T06:24:57.277Z,6.35714
2023-04-14T06:25:57.337Z,6.42857
2023-04-14T06:26:57.354Z,6.71429
2023-04-14T06:27:57.404Z,6.85714
2023-04-14T06:28:57.446Z,7.64286
2023-04-14T06:29:57.488Z,7.5
2023-04-14T06:30:57.532Z,7
2023-04-14T06:31:57.595Z,6.64286
2023-04-14T06:32:57.615Z,6.71429
2023-04-14T06:33:57.665Z,8
2023-04-14T06:34:57.683Z,6.85714
2023-04-14T06:35:57.741Z,6.92857
2023-04-14T06:36:57.766Z,7
2023-04-14T06:37:57.803Z,8.14286
2023-04-14T06:38:58.003Z,8.64286
2023-04-14T06:39:57.895Z,7.71429
2023-04-14T06:40:57.921Z,6.21429
2023-04-14T06:41:57.955Z,6.35714
2023-04-14T06:42:58.002Z,6.42857
2023-04-14T06:43:58.043Z,6
2023-04-14T06:44:58.097Z,5.92857
2023-04-14T06:45:58.157Z,5.64286
2023-04-14T06:46:58.160Z,5.64286
2023-04-14T06:47:58.234Z,6.14286
2023-04-14T06:48:58.396Z,5.64286
2023-04-14T06:49:58.273Z,5.85714
2023-04-14T06:50:58.323Z,5.64286
2023-04-14T06:51:58.363Z,6.92857
2023-04-14T06:52:58.403Z,5.64286
2023-04-14T06:53:58.490Z,6.35714
2023-04-14T06:54:58.484Z,6.14286
2023-04-14T06:55:58.527Z,6.21429
2023-04-14T06:57:00.090Z,5.85714
2023-04-14T06:57:58.613Z,6.42857
2023-04-14T06:58:58.658Z,5.85714
2023-04-14T06:59:58.698Z,5.92857
2023-04-14T07:00:58.736Z,5.92857
2023-04-14T07:01:59.023Z,6.42857
2023-04-14T07:02:58.982Z,6.35714
2023-04-14T07:03:59.027Z,5.85714
2023-04-14T07:04:58.937Z,6.35714
2023-04-14T07:05:58.930Z,5.71429
2023-04-14T07:06:58.970Z,6.21429
2023-04-14T07:07:59.018Z,6.35714
2023-04-14T07:08:59.059Z,6.14286
2023-04-14T07:09:59.105Z,6.64286
2023-04-14T07:10:59.156Z,6.35714
2023-04-14T07:11:59.177Z,6
2023-04-14T07:12:59.223Z,6.14286
2023-04-14T07:13:59.413Z,6.35714
2023-04-14T07:14:59.312Z,6.21429
2023-04-14T07:15:59.449Z,6.5
2023-04-14T07:16:59.385Z,6.71429
2023-04-14T07:18:00.115Z,7.14286
2023-04-14T07:18:59.459Z,6.35714
2023-04-14T07:19:59.491Z,6.35714
2023-04-14T07:20:59.543Z,6.5
2023-04-14T07:21:59.584Z,6
2023-04-14T07:22:59.626Z,6.35714
2023-04-14T07:23:59.824Z,5.85714
2023-04-14T07:24:59.702Z,6.5
2023-04-14T07:25:59.736Z,6.35714
2023-04-14T07:26:59.781Z,6.42857
2023-04-14T07:28:03.462Z,6.92857
2023-04-14T07:28:59.864Z,6.64286
2023-04-14T07:29:59.918Z,6.42857
2023-04-14T07:30:59.963Z,6
2023-04-14T07:32:00.063Z,6.35714
2023-04-14T07:33:00.062Z,6.35714
2023-04-14T07:34:00.307Z,6.5
2023-04-14T07:35:00.165Z,6.42857
2023-04-14T07:36:03.084Z,6.21429
2023-04-14T07:37:00.209Z,6.42857
2023-04-14T07:38:00.241Z,5.92857
2023-04-14T07:39:00.283Z,6.14286
2023-04-14T07:40:00.328Z,6.21429
2023-04-14T07:41:00.380Z,5.85714
2023-04-14T07:42:00.420Z,6
2023-04-14T07:43:00.467Z,6.14286
2023-04-14T07:44:00.919Z,6.5
2023-04-14T07:45:00.541Z,6.5
2023-04-14T07:46:00.613Z,6.42857
2023-04-14T07:47:00.626Z,6.21429
2023-04-14T07:48:00.692Z,6.35714
2023-04-14T07:49:00.711Z,7.35714
2023-04-14T07:50:00.752Z,6.64286
2023-04-14T07:51:00.801Z,6.71429
2023-04-14T07:52:00.828Z,6.5
2023-04-14T07:53:00.873Z,6.42857
2023-04-14T07:54:01.081Z,7
2023-04-14T07:55:00.945Z,7.21429
2023-04-14T07:56:00.989Z,7.21429
2023-04-14T07:57:01.052Z,7.21429
2023-04-14T07:58:01.101Z,7.35714
2023-04-14T07:59:01.302Z,6.92857
2023-04-14T08:00:01.167Z,7.64286
2023-04-14T08:01:01.196Z,6.85714
2023-04-14T08:02:01.344Z,7.92857
2023-04-14T08:03:01.414Z,8.35714
2023-04-14T08:04:01.650Z,8.42857
2023-04-14T08:05:01.385Z,8.5
2023-04-14T08:06:01.417Z,8.42857
2023-04-14T08:07:01.449Z,7.85714
2023-04-14T08:08:01.485Z,8
2023-04-14T08:09:01.720Z,8.64286
2023-04-14T08:10:01.575Z,7.92857
2023-04-14T08:11:01.615Z,7.85714
2023-04-14T08:12:01.749Z,8.5
2023-04-14T08:13:03.831Z,8.14286
2023-04-14T08:14:01.894Z,8
2023-04-14T08:15:01.787Z,7.64286
2023-04-14T08:16:01.860Z,7.71429
2023-04-14T08:17:01.889Z,7.85714
2023-04-14T08:18:01.960Z,7.71429
2023-04-14T08:19:02.120Z,8.64286
2023-04-14T08:20:02.019Z,8
2023-04-14T08:21:02.054Z,7.71429
2023-04-14T08:22:02.091Z,7.92857
2023-04-14T08:23:02.117Z,8
2023-04-14T08:24:02.148Z,7.71429
2023-04-14T08:25:02.203Z,8.35714
2023-04-14T08:26:02.235Z,7.14286
2023-04-14T08:27:02.273Z,7.64286
2023-04-14T08:28:02.319Z,7
2023-04-14T08:29:02.838Z,7.42857
2023-04-14T08:30:02.404Z,6.92857
2023-04-14T08:31:02.456Z,6.92857
2023-04-14T08:32:02.514Z,6.42857
2023-04-14T08:33:02.574Z,6.85714
2023-04-14T08:34:02.574Z,7.21429
2023-04-14T08:35:36.226Z,7.5
2023-04-14T08:36:02.663Z,7.42857
2023-04-14T08:37:02.684Z,7.14286
2023-04-14T08:38:02.720Z,7.14286
2023-04-14T08:39:03.081Z,7.5
2023-04-14T08:40:02.821Z,6.5
2023-04-14T08:41:02.886Z,6.71429
2023-04-14T08:42:02.890Z,7.35714
2023-04-14T08:43:02.927Z,6.85714
2023-04-14T08:44:02.976Z,6.71429
2023-04-14T08:45:03.106Z,6.64286
2023-04-14T08:46:03.074Z,7.14286
2023-04-14T08:47:03.094Z,6.85714
2023-04-14T08:48:03.211Z,7
2023-04-14T08:49:03.559Z,7
2023-04-14T08:50:03.224Z,7
2023-04-14T08:51:03.267Z,6.35714
2023-04-14T08:52:03.316Z,6.85714
2023-04-14T08:53:03.354Z,6.5
2023-04-14T08:54:03.647Z,6.71429
2023-04-14T08:55:03.448Z,6.42857
2023-04-14T08:56:03.487Z,6
2023-04-14T08:57:03.532Z,6.42857
2023-04-14T08:58:03.610Z,6.35714
2023-04-14T08:59:03.610Z,6.64286
2023-04-14T09:00:03.653Z,6.71429
2023-04-14T09:01:03.724Z,6
2023-04-14T09:02:03.888Z,5.5
2023-04-14T09:03:04.038Z,5.92857
2023-04-14T09:04:04.321Z,5.85714
2023-04-14T09:05:03.859Z,6
2023-04-14T09:06:03.893Z,5.85714
2023-04-14T09:07:03.931Z,6
2023-04-14T09:08:03.962Z,5.71429
2023-04-14T09:09:04.011Z,5.64286
2023-04-14T09:10:04.043Z,5.21429
2023-04-14T09:11:04.100Z,5.64286
2023-04-14T09:12:04.129Z,5.21429
2023-04-14T09:13:04.156Z,4.92857
2023-04-14T09:14:04.579Z,4.64286
2023-04-14T09:15:04.238Z,5.64286
2023-04-14T09:16:04.300Z,4.71429
2023-04-14T09:17:04.392Z,4.85714
2023-04-14T09:18:04.419Z,5.42857
2023-04-14T09:19:07.011Z,5
2023-04-14T09:20:34.536Z,5.21429
2023-04-14T09:21:50.758Z,5.21429
2023-04-14T09:22:04.532Z,5
2023-04-14T09:23:04.576Z,4.35714
2023-04-14T09:24:04.604Z,4.42857
2023-04-14T09:25:04.636Z,4.42857
2023-04-14T09:26:04.706Z,4.35714
2023-04-14T09:27:04.728Z,4.35714
2023-04-14T09:28:04.774Z,4.42857
2023-04-14T09:29:04.817Z,4.64286
2023-04-14T09:30:04.854Z,4.14286
2023-04-14T09:31:04.972Z,4
2023-04-14T09:32:04.914Z,4
2023-04-14T09:33:04.984Z,4.42857
2023-04-14T09:34:05.291Z,3.92857
2023-04-14T09:35:05.041Z,4
2023-04-14T09:36:05.075Z,4
2023-04-14T09:37:05.130Z,4
2023-04-14T09:38:05.157Z,4.14286
2023-04-14T09:39:05.199Z,3.85714
2023-04-14T09:40:05.250Z,4.85714
2023-04-14T09:41:05.287Z,4.14286
2023-04-14T09:42:05.331Z,4.42857
2023-04-14T09:43:05.384Z,4
2023-04-14T09:44:05.415Z,4.14286
2023-04-14T09:45:05.455Z,3.92857
2023-04-14T09:46:05.525Z,4.5
2023-04-14T09:47:05.578Z,3.92857
2023-04-14T09:48:05.582Z,4.35714
2023-04-14T09:49:05.631Z,4.14286
2023-04-14T09:50:05.662Z,4.64286
2023-04-14T09:51:05.735Z,4.42857
2023-04-14T09:52:05.762Z,4.42857
2023-04-14T09:53:05.797Z,4.21429
2023-04-14T09:54:06.429Z,4.92857
2023-04-14T09:55:05.852Z,4.5
2023-04-14T09:56:05.930Z,5.21429
2023-04-14T09:57:05.932Z,4.85714
2023-04-14T09:58:05.981Z,4.64286
2023-04-14T09:59:06.361Z,4.92857
2023-04-14T10:00:06.061Z,5.14286
2023-04-14T10:01:06.124Z,5.5
2023-04-14T10:02:06.220Z,5.21429
2023-04-14T10:03:06.283Z,5
2023-04-14T10:04:06.229Z,5.14286
2023-04-14T10:05:06.299Z,5.14286
2023-04-14T10:06:06.310Z,5.35714
2023-04-14T10:07:06.348Z,5.21429
2023-04-14T10:08:06.394Z,5.85714
2023-04-14T10:09:06.427Z,5.42857
2023-04-14T10:10:06.476Z,5.64286
2023-04-14T10:11:06.510Z,5.42857
2023-04-14T10:12:09.008Z,5.14286
2023-04-14T10:13:06.589Z,5.35714
2023-04-14T10:14:06.650Z,4.64286
2023-04-14T10:15:06.673Z,5.14286
2023-04-14T10:16:06.726Z,5.35714
2023-04-14T10:17:06.772Z,5.92857
2023-04-14T10:18:06.847Z,4.85714
2023-04-14T10:19:07.123Z,5.5
2023-04-14T10:20:06.874Z,4.92857
2023-04-14T10:21:06.912Z,5.21429
2023-04-14T10:22:06.964Z,5.14286
2023-04-14T10:23:06.995Z,4.71429
2023-04-14T10:24:07.047Z,5
2023-04-14T10:25:07.067Z,5.14286
2023-04-14T10:26:07.111Z,4.92857
2023-04-14T10:27:07.153Z,5.5
2023-04-14T10:28:07.197Z,5.21429
2023-04-14T10:29:07.232Z,5.21429
2023-04-14T10:30:07.282Z,4.64286
2023-04-14T10:31:07.354Z,5
2023-04-14T10:32:07.489Z,4.85714
2023-04-14T10:33:07.482Z,4.71429
2023-04-14T10:34:07.449Z,4.42857
2023-04-14T10:35:07.471Z,4.71429
2023-04-14T10:36:07.523Z,4.71429
2023-04-14T10:37:07.560Z,4.64286
2023-04-14T10:38:07.600Z,4.85714
2023-04-14T10:39:07.668Z,4.5
2023-04-14T10:40:07.734Z,4.42857
2023-04-14T10:41:07.720Z,3.92857
2023-04-14T10:42:07.758Z,4.71429
2023-04-14T10:43:07.795Z,3.92857
2023-04-14T10:44:07.836Z,4.42857
2023-04-14T10:45:07.878Z,3.42857
2023-04-14T10:46:07.925Z,4
2023-04-14T10:47:08.617Z,3.92857
2023-04-14T10:48:08.008Z,3.5
2023-04-14T10:49:08.047Z,3.85714
2023-04-14T10:50:08.087Z,3.71429
2023-04-14T10:51:08.157Z,3.64286
2023-04-14T10:52:08.226Z,3.5
2023-04-14T10:53:08.211Z,4.14286
2023-04-14T10:54:08.255Z,3.92857
2023-04-14T10:55:08.321Z,4.14286
2023-04-14T10:56:08.324Z,4.35714
2023-04-14T10:57:08.380Z,3.64286
2023-04-14T10:58:08.484Z,3.92857
2023-04-14T10:59:08.455Z,4.64286
2023-04-14T11:00:08.495Z,4.42857
2023-04-14T11:01:08.584Z,4.14286
2023-04-14T11:02:08.646Z,4.92857
2023-04-14T11:03:08.725Z,4.35714
2023-04-14T11:04:08.814Z,4.14286
2023-04-14T11:05:08.712Z,4.71429
2023-04-14T11:06:08.740Z,4.35714
2023-04-14T11:07:08.778Z,4.5
2023-04-14T11:08:08.817Z,4.21429
2023-04-14T11:09:08.863Z,4.85714
2023-04-14T11:10:08.900Z,4.42857
2023-04-14T11:11:08.943Z,4.14286
2023-04-14T11:12:08.992Z,4.5
2023-04-14T11:13:09.029Z,4.42857
2023-04-14T11:14:09.056Z,4.5
2023-04-14T11:15:09.112Z,5.21429
2023-04-14T11:16:09.179Z,6.14286
2023-04-14T11:17:09.220Z,4.85714
2023-04-14T11:18:09.303Z,4.64286
2023-04-14T11:19:09.268Z,4.5
2023-04-14T11:20:09.305Z,4.5
2023-04-14T11:21:09.350Z,4.35714
2023-04-14T11:22:09.396Z,4.5
2023-04-14T11:23:09.433Z,4.42857
2023-04-14T11:24:09.481Z,4.64286
2023-04-14T11:25:09.526Z,4.71429
2023-04-14T11:26:09.619Z,4.42857
2023-04-14T11:27:09.610Z,4.35714
2023-04-14T11:28:09.653Z,3.85714
2023-04-14T11:29:09.696Z,3.85714
2023-04-14T11:30:09.737Z,3.71429
2023-04-14T11:31:09.782Z,5.14286
2023-04-14T11:32:09.829Z,3.92857
2023-04-14T11:33:09.930Z,3.5
2023-04-14T11:34:09.901Z,4.42857
2023-04-14T11:35:09.939Z,4
2023-04-14T11:36:09.976Z,3.42857
2023-04-14T11:37:10.010Z,4
2023-04-14T11:38:10.051Z,3.64286
2023-04-14T11:39:10.097Z,3.64286
2023-04-14T11:40:10.129Z,3.42857
2023-04-14T11:41:10.175Z,4.35714
2023-04-14T11:42:10.223Z,4.42857
2023-04-14T11:43:10.280Z,4.21429
2023-04-14T11:44:10.301Z,3.92857
2023-04-14T11:45:10.357Z,3.64286
2023-04-14T11:46:10.407Z,3.85714
2023-04-14T11:47:10.436Z,3.64286
2023-04-14T11:48:10.472Z,3.5
2023-04-14T11:49:10.515Z,4
2023-04-14T11:50:10.550Z,3.85714
2023-04-14T11:51:10.595Z,4
2023-04-14T11:52:10.634Z,3.35714
2023-04-14T11:53:10.677Z,3.71429
2023-04-14T11:54:10.732Z,4.14286
2023-04-14T11:55:10.751Z,3.71429
2023-04-14T11:56:10.796Z,3.85714
2023-04-14T11:57:10.850Z,3.71429
2023-04-14T11:58:10.886Z,3.64286
2023-04-14T11:59:10.922Z,3.21429
2023-04-14T12:00:10.978Z,3.21429
2023-04-14T12:01:11.012Z,3.14286
2023-04-14T12:02:11.112Z,3.64286
2023-04-14T12:03:11.298Z,3.42857
2023-04-14T12:04:11.382Z,3.21429
2023-04-14T12:05:11.450Z,3.5
2023-04-14T12:06:11.212Z,3.5
2023-04-14T12:07:11.269Z,3.5
2023-04-14T12:08:12.231Z,3.64286
2023-04-14T12:09:11.347Z,3.71429
2023-04-14T12:10:11.425Z,3.92857
2023-04-14T12:11:11.420Z,3.71429
2023-04-14T12:12:11.458Z,3.21429
2023-04-14T12:13:11.492Z,3.5
2023-04-14T12:14:11.571Z,3.71429
2023-04-14T12:15:11.580Z,4.21429
2023-04-14T12:16:11.682Z,3
2023-04-14T12:17:11.669Z,3.5
2023-04-14T12:18:11.762Z,3.35714
2023-04-14T12:19:11.732Z,3.35714
2023-04-14T12:20:11.768Z,3.5
2023-04-14T12:21:12.052Z,3.14286
2023-04-14T12:22:11.867Z,3.35714
2023-04-14T12:23:11.918Z,3
2023-04-14T12:24:11.936Z,3.42857
2023-04-14T12:25:11.999Z,3.71429
2023-04-14T12:26:12.046Z,3.71429
2023-04-14T12:27:12.060Z,3.64286
2023-04-14T12:28:12.106Z,3.42857
2023-04-14T12:29:12.140Z,4.35714